Time;durP1;ratioP1;P1;durP2;ratioP2;P2;SDS_P1;SDS_P2;PMS_P1;PMS_P2;Temp;Humidity;BMP_temperature;BMP_pressure;BME280_temperature;BME280_humidity;BME280_pressure;Samples;Min_cycle;Max_cycle;Signal;HPM_P1;HPM_P2
2023/05/17 00:01:46;;;;;;;15.53;4.87;;;9.10;1.00;;;;;;5017081;28;20598;-49
2023/05/17 00:04:12;;;;;;;23.43;5.90;;;9.10;99.90;;;;;;5019000;28;20484;-48
2023/05/17 00:06:37;;;;;;;21.83;5.20;;;8.90;99.90;;;;;;5014462;28;20187;-48
2023/05/17 00:09:03;;;;;;;20.67;4.80;;;8.90;99.90;;;;;;5015327;28;20184;-48
2023/05/17 00:11:28;;;;;;;22.90;5.37;;;8.80;99.90;;;;;;5017556;28;20206;-48
2023/05/17 00:13:54;;;;;;;26.80;5.47;;;8.80;1.00;;;;;;5016954;28;20263;-48
2023/05/17 00:16:19;;;;;;;23.23;4.60;;;8.70;1.00;;;;;;5014524;28;20184;-48
2023/05/17 00:18:45;;;;;;;16.53;4.73;;;8.60;1.00;;;;;;5016214;28;20218;-48
2023/05/17 00:21:10;;;;;;;24.83;4.90;;;8.50;1.00;;;;;;5015244;28;20230;-48
2023/05/17 00:23:36;;;;;;;24.87;5.53;;;8.40;1.00;;;;;;5018098;28;20215;-48
2023/05/17 00:26:02;;;;;;;25.03;6.00;;;8.40;1.00;;;;;;5015011;28;20195;-48
2023/05/17 00:28:27;;;;;;;16.83;4.43;;;8.40;1.00;;;;;;5016971;28;20195;-49
2023/05/17 00:30:53;;;;;;;17.33;6.00;;;8.40;1.00;;;;;;5015245;28;20188;-49
2023/05/17 00:33:18;;;;;;;21.23;4.50;;;8.40;99.90;;;;;;5015223;28;20187;-49
2023/05/17 00:35:44;;;;;;;20.07;4.97;;;8.40;99.90;;;;;;5018640;28;20223;-49
2023/05/17 00:38:09;;;;;;;28.07;5.00;;;8.40;99.90;;;;;;5019979;28;20195;-49
2023/05/17 00:40:35;;;;;;;23.03;4.60;;;8.30;37.30;;;;;;5019848;28;20224;-48
2023/05/17 00:43:00;;;;;;;19.93;4.50;;;8.30;1.00;;;;;;5013980;28;20950;-48
2023/05/17 00:45:26;;;;;;;24.57;4.37;;;8.20;1.00;;;;;;5020226;28;20199;-49
2023/05/17 00:47:52;;;;;;;25.70;6.20;;;8.20;59.70;;;;;;5020998;28;20557;-48
2023/05/17 00:50:17;;;;;;;24.57;4.90;;;8.20;99.90;;;;;;5017858;28;20223;-49
2023/05/17 00:52:43;;;;;;;28.17;4.67;;;8.10;99.90;;;;;;5016712;28;20215;-49
2023/05/17 00:55:09;;;;;;;31.13;5.20;;;8.10;1.00;;;;;;5015130;28;20188;-48
2023/05/17 00:57:35;;;;;;;22.47;5.00;;;8.10;1.00;;;;;;5015646;28;20326;-48
2023/05/17 01:00:01;;;;;;;22.93;5.00;;;8.10;99.90;;;;;;5014257;28;20215;-48
2023/05/17 01:02:27;;;;;;;27.87;5.10;;;8.20;99.90;;;;;;5018519;28;20449;-48
2023/05/17 01:04:53;;;;;;;26.67;5.30;;;8.20;99.90;;;;;;5015962;28;20435;-49
2023/05/17 01:07:18;;;;;;;22.50;4.20;;;8.20;99.80;;;;;;5014345;28;20202;-49
2023/05/17 01:09:44;;;;;;;16.30;4.67;;;8.20;1.00;;;;;;5015167;28;20609;-48
2023/05/17 01:12:17;;;;;;;23.90;5.20;;;8.30;1.00;;;;;;5016373;28;20187;-49
2023/05/17 01:15:01;;;;;;;24.50;4.90;;;8.30;99.90;;;;;;5015338;28;20447;-49
2023/05/17 01:17:35;;;;;;;20.30;5.50;;;8.30;99.90;;;;;;5014221;28;20446;-49
2023/05/17 01:20:17;;;;;;;24.43;4.70;;;8.30;99.90;;;;;;5018542;28;20486;-48
2023/05/17 01:23:07;;;;;;;22.20;4.57;;;8.20;99.90;;;;;;5017059;28;20441;-48
2023/05/17 01:25:51;;;;;;;19.40;5.17;;;8.20;99.90;;;;;;5014493;28;20458;-48
2023/05/17 01:28:20;;;;;;;25.13;4.63;;;8.20;1.00;;;;;;5014244;28;20457;-48
2023/05/17 01:30:48;;;;;;;19.80;5.00;;;8.20;1.00;;;;;;5016782;28;20435;-48
2023/05/17 01:33:15;;;;;;;22.57;4.33;;;8.20;1.00;;;;;;5017885;28;20569;-48
2023/05/17 01:35:40;;;;;;;23.97;4.40;;;8.20;1.00;;;;;;5015943;28;20593;-49
2023/05/17 01:38:06;;;;;;;12.07;4.00;;;8.10;1.00;;;;;;5014203;28;20533;-49
2023/05/17 01:40:35;;;;;;;16.13;3.90;;;8.20;1.00;;;;;;5014235;28;20216;-48
2023/05/17 01:43:14;;;;;;;28.07;4.77;;;8.10;99.90;;;;;;5017311;28;20230;-49
2023/05/17 01:46:08;;;;;;;14.87;3.57;;;8.10;99.90;;;;;;5020195;28;20438;-49
2023/05/17 01:48:43;;;;;;;21.27;3.60;;;8.00;1.00;;;;;;5020821;28;20485;-48
2023/05/17 01:51:15;;;;;;;22.07;3.90;;;7.90;99.90;;;;;;5019083;28;21059;-49
2023/05/17 01:54:01;;;;;;;21.23;3.27;;;7.90;1.00;;;;;;5018241;28;20504;-49
2023/05/17 01:56:32;;;;;;;21.13;4.03;;;7.90;1.00;;;;;;5019336;28;20449;-49
2023/05/17 01:58:58;;;;;;;15.70;4.40;;;7.80;1.00;;;;;;5021072;28;20861;-49
2023/05/17 02:01:27;;;;;;;15.10;3.83;;;7.80;99.90;;;;;;5018029;28;20545;-49
2023/05/17 02:03:53;;;;;;;15.70;3.73;;;7.70;99.90;;;;;;5017915;28;20457;-49
2023/05/17 02:06:18;;;;;;;14.23;2.77;;;7.70;1.00;;;;;;5017660;28;20951;-49
2023/05/17 02:08:44;;;;;;;8.37;3.00;;;7.80;1.00;;;;;;5021954;28;20184;-49
2023/05/17 02:11:09;;;;;;;13.67;2.63;;;7.80;99.90;;;;;;5027551;28;20212;-49
2023/05/17 02:13:35;;;;;;;15.30;2.83;;;7.80;99.90;;;;;;5022612;28;20184;-48
2023/05/17 02:16:01;;;;;;;13.10;2.93;;;7.80;99.90;;;;;;5019557;28;20260;-49
2023/05/17 02:18:27;;;;;;;15.57;3.27;;;7.90;41.40;;;;;;5017481;28;20199;-49
2023/05/17 02:20:53;;;;;;;22.43;3.40;;;7.80;1.00;;;;;;5021649;28;20477;-49
2023/05/17 02:23:19;;;;;;;17.47;3.20;;;7.80;1.00;;;;;;5021655;28;20192;-49
2023/05/17 02:25:44;;;;;;;16.57;3.23;;;7.80;99.90;;;;;;5018108;28;20191;-49
2023/05/17 02:28:10;;;;;;;13.10;2.30;;;7.90;99.90;;;;;;5023712;28;20189;-49
2023/05/17 02:30:39;;;;;;;20.60;3.80;;;7.80;17.40;;;;;;5018986;28;20183;-49
2023/05/17 02:33:05;;;;;;;8.63;2.93;;;7.80;1.00;;;;;;5024444;28;20502;-49
2023/05/17 02:35:31;;;;;;;17.93;2.73;;;7.80;1.00;;;;;;5020215;28;20488;-48
2023/05/17 02:37:56;;;;;;;16.50;2.97;;;7.80;1.00;;;;;;5017397;28;20443;-49
2023/05/17 02:40:22;;;;;;;13.00;2.97;;;7.70;1.00;;;;;;5018142;28;20231;-49
2023/05/17 02:42:47;;;;;;;14.03;3.47;;;7.70;99.90;;;;;;5017321;28;20188;-49
2023/05/17 02:45:13;;;;;;;21.13;2.73;;;7.60;99.90;;;;;;5018854;28;20652;-49
2023/05/17 02:47:39;;;;;;;11.50;3.30;;;7.50;98.60;;;;;;5016812;28;20434;-49
2023/05/17 02:50:05;;;;;;;15.60;3.00;;;7.60;70.60;;;;;;5016661;28;20626;-49
2023/05/17 02:52:30;;;;;;;9.47;2.80;;;7.50;53.00;;;;;;5017344;28;20192;-49
2023/05/17 02:54:56;;;;;;;8.87;2.30;;;7.40;23.90;;;;;;5016858;28;20446;-49
2023/05/17 02:57:21;;;;;;;13.73;3.90;;;7.30;14.40;;;;;;5017002;28;20188;-49
2023/05/17 02:59:47;;;;;;;17.10;3.20;;;7.30;19.70;;;;;;5019750;28;20581;-49
2023/05/17 03:02:12;;;;;;;22.13;3.40;;;7.20;8.60;;;;;;5016616;28;20268;-48
2023/05/17 03:04:38;;;;;;;13.17;2.33;;;7.10;1.00;;;;;;5016879;28;20568;-49
2023/05/17 03:07:04;;;;;;;14.97;2.83;;;7.10;1.00;;;;;;5016457;28;20682;-49
2023/05/17 03:09:30;;;;;;;9.13;2.33;;;7.10;1.00;;;;;;5018124;28;20230;-49
2023/05/17 03:11:56;;;;;;;15.57;3.00;;;7.10;1.00;;;;;;5016453;28;20526;-47
2023/05/17 03:14:21;;;;;;;18.20;3.93;;;6.90;1.00;;;;;;5019287;28;20195;-48
2023/05/17 03:16:47;;;;;;;13.00;2.63;;;6.90;1.00;;;;;;5020189;28;20439;-48
2023/05/17 03:19:12;;;;;;;12.80;2.87;;;6.80;1.00;;;;;;5016283;28;20251;-49
2023/05/17 03:21:38;;;;;;;23.40;2.83;;;6.80;1.00;;;;;;5016669;28;20640;-49
2023/05/17 03:24:04;;;;;;;10.43;3.33;;;6.70;1.00;;;;;;5015776;28;20411;-49
2023/05/17 03:26:31;;;;;;;23.93;2.87;;;6.80;1.00;;;;;;5017142;28;20246;-50
2023/05/17 03:28:57;;;;;;;14.73;2.83;;;6.80;1.00;;;;;;5016582;28;20179;-49
2023/05/17 03:31:23;;;;;;;14.17;2.23;;;6.90;1.00;;;;;;5022683;28;20978;-49
2023/05/17 03:33:49;;;;;;;9.90;2.23;;;6.90;1.00;;;;;;5016575;28;20687;-49
2023/05/17 03:36:14;;;;;;;14.53;2.87;;;7.00;1.00;;;;;;5016251;28;20442;-49
2023/05/17 03:38:40;;;;;;;12.67;2.37;;;7.00;1.00;;;;;;5015817;28;20188;-49
2023/05/17 03:41:05;;;;;;;10.67;2.73;;;7.10;1.00;;;;;;5018293;28;20682;-49
2023/05/17 03:43:31;;;;;;;16.47;3.00;;;7.20;1.00;;;;;;5018607;28;20550;-49
2023/05/17 03:45:57;;;;;;;13.47;2.77;;;7.20;1.00;;;;;;5015247;28;20570;-49
2023/05/17 03:48:22;;;;;;;12.40;2.63;;;7.20;1.00;;;;;;5016746;28;20207;-49
2023/05/17 03:50:48;;;;;;;17.83;3.30;;;7.30;1.00;;;;;;5015247;28;20235;-48
2023/05/17 03:53:14;;;;;;;8.33;2.77;;;7.40;1.00;;;;;;5015294;28;20179;-49
2023/05/17 03:55:39;;;;;;;21.50;2.97;;;7.40;1.00;;;;;;5015680;28;20184;-49
2023/05/17 03:58:06;;;;;;;22.87;3.20;;;7.50;1.00;;;;;;5016241;28;20199;-49
2023/05/17 04:00:31;;;;;;;13.60;3.30;;;7.40;1.00;;;;;;5017851;28;20216;-49
2023/05/17 04:02:57;;;;;;;18.33;3.17;;;7.40;1.00;;;;;;5019124;28;20794;-49
2023/05/17 04:05:23;;;;;;;22.37;3.50;;;7.40;1.00;;;;;;5019101;28;20275;-49
2023/05/17 04:07:48;;;;;;;16.80;3.50;;;7.40;1.00;;;;;;5015469;28;20756;-49
2023/05/17 04:10:15;;;;;;;18.30;3.40;;;7.40;1.00;;;;;;5017766;28;20239;-49
2023/05/17 04:12:40;;;;;;;17.80;3.47;;;7.50;1.00;;;;;;5015987;28;20187;-49
2023/05/17 04:15:06;;;;;;;15.50;3.27;;;7.40;1.00;;;;;;5016304;28;20492;-49
2023/05/17 04:17:32;;;;;;;17.07;3.40;;;7.40;1.00;;;;;;5015412;28;20250;-48
2023/05/17 04:19:57;;;;;;;9.33;2.50;;;7.50;1.00;;;;;;5016508;28;20987;-49
2023/05/17 04:22:23;;;;;;;13.23;2.93;;;7.60;1.00;;;;;;5015058;28;20192;-49
2023/05/17 04:24:48;;;;;;;10.80;2.63;;;7.70;1.00;;;;;;5018310;28;20206;-49
2023/05/17 04:27:14;;;;;;;18.23;2.63;;;7.70;1.00;;;;;;5014966;28;20187;-49
2023/05/17 04:29:40;;;;;;;15.70;4.23;;;7.80;1.00;;;;;;5017551;28;20623;-49
2023/05/17 04:32:07;;;;;;;15.97;2.83;;;7.80;1.00;;;;;;5015545;28;20184;-49
2023/05/17 04:34:32;;;;;;;17.00;2.63;;;7.80;1.00;;;;;;5017625;28;20184;-49
2023/05/17 04:36:58;;;;;;;22.87;3.90;;;7.90;1.00;;;;;;5014807;28;20954;-49
2023/05/17 04:39:24;;;;;;;13.63;3.47;;;7.90;1.00;;;;;;5015116;28;20223;-49
2023/05/17 04:41:49;;;;;;;20.53;4.17;;;7.90;1.00;;;;;;5015633;28;20184;-49
2023/05/17 04:44:16;;;;;;;14.93;2.80;;;7.80;1.00;;;;;;5017054;28;20195;-49
2023/05/17 04:46:42;;;;;;;18.07;3.27;;;7.80;1.00;;;;;;5014766;28;20188;-49
2023/05/17 04:49:08;;;;;;;26.47;5.13;;;7.80;1.00;;;;;;5015367;28;20875;-49
2023/05/17 04:51:34;;;;;;;13.00;3.10;;;7.80;1.00;;;;;;5014329;28;20564;-49
2023/05/17 04:54:00;;;;;;;18.30;3.20;;;7.80;1.00;;;;;;5014778;28;20184;-50
2023/05/17 04:56:26;;;;;;;17.70;3.73;;;7.80;1.00;;;;;;5014807;28;20192;-49
2023/05/17 04:58:52;;;;;;;19.90;3.13;;;7.90;1.00;;;;;;5017215;28;20184;-49
2023/05/17 05:01:18;;;;;;;17.77;3.50;;;8.00;1.00;;;;;;5017144;28;20491;-49
2023/05/17 05:03:44;;;;;;;21.63;3.00;;;7.90;1.00;;;;;;5016225;28;20211;-49
2023/05/17 05:06:10;;;;;;;18.57;2.80;;;8.00;1.00;;;;;;5022406;28;20531;-49
2023/05/17 05:08:36;;;;;;;13.50;2.60;;;8.10;1.00;;;;;;5014160;28;20200;-48
2023/05/17 05:11:02;;;;;;;15.80;2.57;;;8.10;1.00;;;;;;5017976;28;20445;-50
2023/05/17 05:13:27;;;;;;;16.53;2.73;;;8.10;1.00;;;;;;5018465;28;20330;-49
2023/05/17 05:15:53;;;;;;;25.30;3.20;;;8.20;1.00;;;;;;5015876;28;20217;-49
2023/05/17 05:18:19;;;;;;;15.53;2.93;;;8.30;1.00;;;;;;5014710;28;20675;-48
2023/05/17 05:20:48;;;;;;;17.13;3.20;;;8.30;1.00;;;;;;5015268;28;20220;-49
2023/05/17 05:23:14;;;;;;;15.13;3.43;;;8.40;1.00;;;;;;5016944;28;20192;-49
2023/05/17 05:25:39;;;;;;;16.90;3.50;;;8.40;1.00;;;;;;5019947;28;21015;-49
2023/05/17 05:28:05;;;;;;;17.10;2.90;;;8.60;1.00;;;;;;5020883;28;20188;-49
2023/05/17 05:30:31;;;;;;;33.17;3.93;;;8.70;1.00;;;;;;5017724;28;20223;-49
2023/05/17 05:32:57;;;;;;;17.63;3.10;;;8.70;1.00;;;;;;5017851;28;20669;-49
2023/05/17 05:35:29;;;;;;;19.30;3.83;;;8.80;1.00;;;;;;5019913;28;20446;-49
2023/05/17 05:37:55;;;;;;;18.60;2.83;;;8.90;1.00;;;;;;5018852;28;20326;-49
2023/05/17 05:40:21;;;;;;;18.10;3.30;;;8.90;1.00;;;;;;5021660;28;20470;-49
2023/05/17 05:42:47;;;;;;;12.70;2.90;;;8.90;1.00;;;;;;5022575;28;20957;-49
2023/05/17 05:45:12;;;;;;;12.90;3.23;;;8.90;1.00;;;;;;5021226;28;20200;-49
2023/05/17 05:47:38;;;;;;;19.67;3.73;;;9.00;1.00;;;;;;5026482;28;20215;-49
2023/05/17 05:50:05;;;;;;;20.13;3.13;;;9.20;1.00;;;;;;5018453;28;20227;-49
2023/05/17 05:52:30;;;;;;;12.87;2.90;;;9.50;1.00;;;;;;5021085;28;20206;-48
2023/05/17 05:54:56;;;;;;;14.40;2.50;;;9.70;1.00;;;;;;5016034;28;20434;-49
2023/05/17 05:57:22;;;;;;;18.40;3.27;;;9.80;1.00;;;;;;5020702;28;20196;-49
2023/05/17 05:59:47;;;;;;;14.57;3.03;;;9.90;1.00;;;;;;5017664;28;20315;-49
2023/05/17 06:02:13;;;;;;;17.20;2.57;;;10.00;1.00;;;;;;5017761;28;20219;-49
2023/05/17 06:04:38;;;;;;;19.03;2.60;;;10.00;1.00;;;;;;5017326;28;20275;-49
2023/05/17 06:07:04;;;;;;;15.00;2.70;;;10.00;1.00;;;;;;5018194;28;20659;-50
2023/05/17 06:09:29;;;;;;;25.53;2.53;;;10.30;1.00;;;;;;5017649;28;20543;-49
2023/05/17 06:11:55;;;;;;;16.13;2.43;;;10.40;1.00;;;;;;5017117;28;20275;-50
2023/05/17 06:14:21;;;;;;;13.10;2.60;;;10.40;1.00;;;;;;5023171;28;20274;-49
2023/05/17 06:16:47;;;;;;;15.40;2.80;;;10.50;1.00;;;;;;5016950;28;20195;-49
2023/05/17 06:19:13;;;;;;;13.13;2.70;;;10.40;1.00;;;;;;5017465;28;20196;-50
2023/05/17 06:21:39;;;;;;;12.20;2.70;;;10.60;1.00;;;;;;5019778;28;20438;-50
2023/05/17 06:24:05;;;;;;;8.70;2.10;;;10.80;1.00;;;;;;5018091;28;20947;-49
2023/05/17 06:26:31;;;;;;;13.03;2.77;;;10.80;1.00;;;;;;5022774;28;20192;-49
2023/05/17 06:28:56;;;;;;;9.80;2.80;;;10.80;1.00;;;;;;5022975;28;20456;-50
2023/05/17 06:31:22;;;;;;;14.33;2.60;;;10.90;1.00;;;;;;5019784;28;20636;-50
2023/05/17 06:33:47;;;;;;;9.03;2.20;;;11.10;99.90;;;;;;5017765;28;20274;-49
2023/05/17 06:36:13;;;;;;;13.67;2.73;;;11.30;99.90;;;;;;5011751;28;20247;-49
2023/05/17 06:38:38;;;;;;;12.77;3.03;;;11.40;99.90;;;;;;5022975;28;20629;-49
2023/05/17 06:41:04;;;;;;;7.67;2.00;;;11.50;99.90;;;;;;5019447;28;20958;-49
2023/05/17 06:43:30;;;;;;;11.33;2.40;;;11.40;99.90;;;;;;5019833;28;20551;-49
2023/05/17 06:45:56;;;;;;;11.97;1.87;;;11.40;99.90;;;;;;5019027;28;20441;-49
2023/05/17 06:48:21;;;;;;;9.90;2.50;;;11.20;99.90;;;;;;5017866;28;20194;-49
2023/05/17 06:50:47;;;;;;;39.23;17.50;;;11.00;99.90;;;;;;5016563;28;20243;-48
2023/05/17 06:53:13;;;;;;;11.73;3.13;;;10.90;99.90;;;;;;5016554;28;20274;-49
2023/05/17 06:55:39;;;;;;;25.10;3.70;;;10.70;99.90;;;;;;5022844;28;20192;-48
2023/05/17 06:58:04;;;;;;;10.70;2.40;;;10.70;99.90;;;;;;5021809;28;20620;-48
2023/05/17 07:00:30;;;;;;;7.67;2.10;;;10.70;99.90;;;;;;5026095;28;20478;-48
2023/05/17 07:02:56;;;;;;;14.80;2.50;;;10.80;99.90;;;;;;5016684;28;20270;-49
2023/05/17 07:05:23;;;;;;;11.97;2.30;;;10.80;99.90;;;;;;5022541;28;20188;-49
2023/05/17 07:07:48;;;;;;;13.63;2.60;;;10.70;99.90;;;;;;5030093;28;20188;-49
2023/05/17 07:10:14;;;;;;;10.83;2.37;;;10.70;99.90;;;;;;5021578;28;20517;-48
2023/05/17 07:12:39;;;;;;;10.60;2.20;;;10.60;99.90;;;;;;5017972;28;20262;-49
2023/05/17 07:15:05;;;;;;;13.47;2.83;;;10.50;99.90;;;;;;5022955;28;20188;-48
2023/05/17 07:17:31;;;;;;;15.50;2.50;;;10.40;99.90;;;;;;5016409;28;20188;-49
2023/05/17 07:19:56;;;;;;;11.63;2.77;;;10.30;99.90;;;;;;5022322;28;20471;-48
2023/05/17 07:22:22;;;;;;;17.60;2.70;;;10.40;99.90;;;;;;5017182;28;20211;-49
2023/05/17 07:24:48;;;;;;;21.13;3.00;;;10.70;99.90;;;;;;5016380;28;20521;-48
2023/05/17 07:27:13;;;;;;;10.03;2.20;;;11.00;99.90;;;;;;5016824;28;20180;-48
2023/05/17 07:29:41;;;;;;;9.40;2.10;;;11.10;99.90;;;;;;5016070;28;20204;-48
2023/05/17 07:32:08;;;;;;;12.03;2.00;;;11.10;99.90;;;;;;5020779;28;20613;-47
2023/05/17 07:34:35;;;;;;;13.83;2.93;;;11.10;99.90;;;;;;5016189;28;20446;-48
2023/05/17 07:37:00;;;;;;;14.90;3.23;;;11.10;99.90;;;;;;5021099;28;20470;-49
2023/05/17 07:39:26;;;;;;;16.27;3.00;;;11.20;99.90;;;;;;5019982;28;21088;-48
2023/05/17 07:41:52;;;;;;;8.47;2.53;;;11.30;99.90;;;;;;5020119;28;20797;-48
2023/05/17 07:44:17;;;;;;;13.47;2.23;;;11.60;99.90;;;;;;5020895;28;20187;-49
2023/05/17 07:46:43;;;;;;;9.87;2.57;;;11.80;99.90;;;;;;5018888;28;20246;-48
2023/05/17 07:49:08;;;;;;;12.13;2.47;;;11.90;99.90;;;;;;5015474;28;20204;-48
2023/05/17 07:51:35;;;;;;;8.60;1.70;;;12.10;99.90;;;;;;5021213;28;20232;-48
2023/05/17 07:54:02;;;;;;;8.50;1.97;;;12.40;99.90;;;;;;5019992;28;20203;-48
2023/05/17 07:56:28;;;;;;;6.53;2.57;;;12.70;99.90;;;;;;5018168;28;20521;-50
2023/05/17 07:58:54;;;;;;;10.10;2.23;;;12.80;99.90;;;;;;5024648;28;20434;-47
2023/05/17 08:01:19;;;;;;;13.23;3.17;;;13.20;99.90;;;;;;5016647;28;20486;-48
2023/05/17 08:03:46;;;;;;;9.30;2.10;;;13.60;99.90;;;;;;5020094;28;21549;-49
2023/05/17 08:06:14;;;;;;;9.57;2.30;;;13.70;99.90;;;;;;5015523;28;20243;-49
2023/05/17 08:08:40;;;;;;;10.83;2.40;;;13.80;99.90;;;;;;5017162;28;20453;-49
2023/05/17 08:11:06;;;;;;;9.60;3.30;;;13.50;99.90;;;;;;5016201;28;20434;-49
2023/05/17 08:13:31;;;;;;;9.43;2.03;;;13.50;99.90;;;;;;5017989;28;20183;-49
2023/05/17 08:16:02;;;;;;;6.77;2.30;;;13.30;99.90;;;;;;5019369;28;20957;-49
2023/05/17 08:18:30;;;;;;;12.63;2.80;;;13.20;99.90;;;;;;5018481;28;20291;-49
2023/05/17 08:20:56;;;;;;;6.27;2.20;;;13.30;99.90;;;;;;5018022;28;20470;-49
2023/05/17 08:23:21;;;;;;;11.30;2.67;;;13.70;99.90;;;;;;5016914;28;20444;-50
2023/05/17 08:25:47;;;;;;;12.97;3.00;;;14.00;99.90;;;;;;5018104;28;20196;-49
2023/05/17 08:28:12;;;;;;;12.00;3.30;;;14.10;99.90;;;;;;5020770;28;20195;-49
2023/05/17 08:30:38;;;;;;;15.13;2.60;;;13.80;99.90;;;;;;5019640;28;20187;-50
2023/05/17 08:33:04;;;;;;;9.70;2.87;;;14.00;99.90;;;;;;5023905;28;20192;-49
2023/05/17 08:35:30;;;;;;;9.10;2.57;;;13.90;99.90;;;;;;5016359;28;20551;-49
2023/05/17 08:37:56;;;;;;;8.37;2.80;;;13.90;99.90;;;;;;5019259;28;20211;-50
2023/05/17 08:40:21;;;;;;;8.57;2.67;;;13.80;99.90;;;;;;5016077;28;20537;-50
2023/05/17 08:42:51;;;;;;;14.40;2.80;;;13.70;99.90;;;;;;5015786;28;20888;-49
2023/05/17 08:45:17;;;;;;;11.47;2.63;;;13.50;99.90;;;;;;5014865;28;20258;-49
2023/05/17 08:47:45;;;;;;;14.17;2.67;;;13.90;99.90;;;;;;5018532;28;20931;-51
2023/05/17 08:50:11;;;;;;;10.83;2.60;;;14.30;99.90;;;;;;5020670;28;20486;-49
2023/05/17 08:52:39;;;;;;;9.13;2.80;;;14.20;99.90;;;;;;5020161;28;20500;-49
2023/05/17 08:55:07;;;;;;;9.93;2.57;;;13.80;99.90;;;;;;5018046;28;20455;-50
2023/05/17 08:57:35;;;;;;;10.33;3.00;;;13.40;99.90;;;;;;5019207;28;20534;-49
2023/05/17 09:00:03;;;;;;;8.47;2.87;;;13.00;99.90;;;;;;5024380;28;20985;-49
2023/05/17 09:02:30;;;;;;;9.70;2.90;;;12.80;99.90;;;;;;5026092;28;20435;-49
2023/05/17 09:04:56;;;;;;;11.93;2.97;;;12.50;99.90;;;;;;5018250;28;20449;-50
2023/05/17 09:07:22;;;;;;;7.47;2.20;;;12.70;99.90;;;;;;5025045;28;20445;-49
2023/05/17 09:09:52;;;;;;;22.50;6.87;;;13.50;99.90;;;;;;5021970;28;20439;-49
2023/05/17 09:12:19;;;;;;;12.97;5.40;;;13.80;99.90;;;;;;5017604;28;20988;-49
2023/05/17 09:14:44;;;;;;;9.63;2.70;;;14.50;99.90;;;;;;5021906;28;20953;-50
2023/05/17 09:17:15;;;;;;;11.40;3.03;;;15.10;99.90;;;;;;5022759;28;20443;-49
2023/05/17 09:19:45;;;;;;;7.40;2.60;;;15.80;99.90;;;;;;5021585;28;20224;-51
2023/05/17 09:22:16;;;;;;;12.87;2.93;;;16.00;99.90;;;;;;5020588;28;20453;-50
2023/05/17 09:24:42;;;;;;;9.93;2.60;;;15.60;99.90;;;;;;5018383;28;20480;-51
2023/05/17 09:27:13;;;;;;;9.20;2.30;;;15.00;99.90;;;;;;5017990;28;20923;-50
2023/05/17 09:29:38;;;;;;;20.30;3.47;;;14.30;99.90;;;;;;5025020;28;20664;-50
2023/05/17 09:32:15;;;;;;;10.37;2.40;;;13.60;99.90;;;;;;5021021;28;20471;-49
2023/05/17 09:34:41;;;;;;;8.93;2.70;;;13.10;99.90;;;;;;5018760;28;20198;-49
2023/05/17 09:37:18;;;;;;;14.80;3.33;;;12.80;99.90;;;;;;5023055;28;20434;-49
2023/05/17 09:39:46;;;;;;;14.83;2.77;;;12.30;99.90;;;;;;5019164;28;21026;-49
2023/05/17 09:42:15;;;;;;;13.50;2.70;;;12.00;99.90;;;;;;5019160;28;20455;-50
2023/05/17 09:45:00;;;;;;;10.50;3.27;;;11.70;99.90;;;;;;5018006;28;20440;-49
2023/05/17 09:47:27;;;;;;;8.00;2.50;;;12.00;99.90;;;;;;5023852;28;20803;-49
2023/05/17 09:49:59;;;;;;;15.97;3.03;;;12.30;99.90;;;;;;5022386;28;20481;-50
2023/05/17 09:52:30;;;;;;;11.97;2.70;;;12.40;99.90;;;;;;5023598;28;20472;-50
2023/05/17 09:54:57;;;;;;;19.90;3.03;;;13.10;99.90;;;;;;5016912;28;20478;-50
2023/05/17 09:57:35;;;;;;;17.30;2.70;;;13.70;99.90;;;;;;5018273;28;20447;-50
2023/05/17 10:00:01;;;;;;;16.77;3.03;;;14.60;99.90;;;;;;5020213;28;20474;-50
2023/05/17 10:02:31;;;;;;;13.77;2.83;;;15.20;99.90;;;;;;5017088;28;20814;-50
2023/05/17 10:04:57;;;;;;;13.13;2.73;;;15.10;99.90;;;;;;5023413;28;20584;-50
2023/05/17 10:07:25;;;;;;;7.77;2.63;;;14.70;99.90;;;;;;5017627;28;20543;-50
2023/05/17 10:09:54;;;;;;;11.30;2.70;;;14.10;99.90;;;;;;5023068;28;20542;-50
2023/05/17 10:12:26;;;;;;;10.10;2.90;;;13.80;99.90;;;;;;5021194;28;20431;-49
2023/05/17 10:14:55;;;;;;;11.80;2.40;;;13.50;99.90;;;;;;5018971;28;20906;-50
2023/05/17 10:17:22;;;;;;;17.80;2.77;;;13.20;99.90;;;;;;5026879;28;20430;-50
2023/05/17 10:19:48;;;;;;;12.00;2.53;;;13.10;99.90;;;;;;5029982;28;20954;-50
2023/05/17 10:22:15;;;;;;;11.35;2.63;;;13.60;99.90;;;;;;5032573;28;20417;-50
2023/05/17 10:24:45;;;;;;;12.40;2.53;;;14.10;99.90;;;;;;5033129;28;20224;-50
2023/05/17 10:27:12;;;;;;;7.73;2.20;;;14.40;99.90;;;;;;5033879;28;20422;-50
2023/05/17 10:29:38;;;;;;;5.10;1.90;;;14.70;99.90;;;;;;5032570;28;20435;-50
2023/05/17 10:32:08;;;;;;;7.13;3.00;;;15.10;99.90;;;;;;5021875;28;20442;-51
2023/05/17 10:34:38;;;;;;;6.67;2.10;;;15.10;99.90;;;;;;5019866;28;20534;-50
2023/05/17 10:37:04;;;;;;;9.00;2.63;;;14.90;99.90;;;;;;5022838;28;20442;-50
2023/05/17 10:39:33;;;;;;;10.80;2.13;;;14.70;99.90;;;;;;5015451;28;20797;-50
2023/05/17 10:42:01;;;;;;;18.57;2.70;;;14.00;99.90;;;;;;5020348;28;20954;-50
2023/05/17 10:44:31;;;;;;;8.40;2.60;;;13.40;99.90;;;;;;5022757;28;20435;-49
2023/05/17 10:46:58;;;;;;;12.70;2.90;;;13.20;99.90;;;;;;5015748;28;20442;-50
2023/05/17 10:49:35;;;;;;;8.03;2.70;;;13.00;99.90;;;;;;5018108;28;20439;-50
2023/05/17 10:52:19;;;;;;;18.23;2.60;;;13.30;99.90;;;;;;4970951;28;1319957;-50
2023/05/17 10:54:48;;;;;;;8.17;2.80;;;14.30;99.90;;;;;;5017136;28;20191;-50
2023/05/17 10:57:37;;;;;;;5.57;2.73;;;15.40;99.90;;;;;;5016390;28;20478;-50
2023/05/17 11:00:06;;;;;;;14.03;3.00;;;15.40;99.90;;;;;;5018872;28;20519;-50
2023/05/17 11:02:33;;;;;;;7.23;1.90;;;14.50;99.90;;;;;;5016575;28;21207;-50
2023/05/17 11:05:01;;;;;;;9.33;2.50;;;13.60;99.90;;;;;;5022629;28;20923;-49
2023/05/17 11:07:36;;;;;;;5.87;2.67;;;13.00;99.90;;;;;;5017281;28;20466;-49
2023/05/17 11:10:10;;;;;;;6.43;1.73;;;12.90;99.90;;;;;;5022132;28;20451;-49
2023/05/17 11:12:38;;;;;;;9.47;2.70;;;13.50;99.90;;;;;;5022039;28;20450;-50
2023/05/17 11:15:09;;;;;;;12.37;2.53;;;14.10;99.90;;;;;;5021126;28;20450;-49
2023/05/17 11:17:53;;;;;;;6.10;1.50;;;14.30;99.90;;;;;;5021273;28;20462;-50
2023/05/17 11:20:24;;;;;;;6.87;1.83;;;14.70;99.90;;;;;;5021879;28;20581;-51
2023/05/17 11:23:03;;;;;;;4.70;1.70;;;14.90;99.90;;;;;;5023580;28;20490;-50
2023/05/17 11:25:37;;;;;;;4.37;1.63;;;15.50;99.90;;;;;;5020267;28;20448;-50
2023/05/17 11:28:20;;;;;;;3.77;1.70;;;16.10;99.90;;;;;;5021058;28;20455;-51
2023/05/17 11:30:50;;;;;;;7.30;1.90;;;16.90;99.90;;;;;;5020495;28;20819;-51
2023/05/17 11:33:17;;;;;;;6.90;1.60;;;17.60;99.90;;;;;;5015697;28;20822;-51
2023/05/17 11:35:43;;;;;;;5.43;1.67;;;17.70;99.90;;;;;;5015040;28;20450;-51
2023/05/17 11:38:18;;;;;;;6.70;2.03;;;17.70;99.90;;;;;;5015533;28;20811;-51
2023/05/17 11:40:47;;;;;;;5.17;2.03;;;17.30;99.90;;;;;;5018680;28;20473;-51
2023/05/17 11:43:18;;;;;;;6.00;2.07;;;16.50;99.90;;;;;;5016303;28;20494;-50
2023/05/17 11:46:00;;;;;;;8.00;2.00;;;15.40;99.90;;;;;;5015987;28;20469;-50
2023/05/17 11:48:26;;;;;;;11.47;2.37;;;14.50;99.90;;;;;;5022647;28;20451;-50
2023/05/17 11:50:53;;;;;;;4.73;2.00;;;14.10;99.90;;;;;;5018307;28;20848;-50
2023/05/17 11:53:20;;;;;;;6.00;2.10;;;14.80;99.90;;;;;;5015004;28;20504;-50
2023/05/17 11:55:49;;;;;;;5.80;1.90;;;15.70;99.90;;;;;;5015301;28;20443;-50
2023/05/17 11:58:17;;;;;;;4.73;1.87;;;15.80;99.90;;;;;;5018809;28;20489;-50
2023/05/17 12:00:43;;;;;;;10.90;2.13;;;16.60;99.90;;;;;;5015878;28;20482;-51
2023/05/17 12:03:16;;;;;;;9.17;1.80;;;17.20;99.90;;;;;;5017584;28;20445;-50
2023/05/17 12:05:43;;;;;;;11.70;2.10;;;17.20;99.90;;;;;;5020380;28;20539;-51
2023/05/17 12:08:08;;;;;;;7.53;2.33;;;17.10;99.90;;;;;;5019004;28;20441;-50
2023/05/17 12:10:34;;;;;;;10.37;2.40;;;16.60;99.90;;;;;;5020139;28;20460;-50
2023/05/17 12:13:00;;;;;;;3.67;1.93;;;16.20;99.90;;;;;;5018419;28;20179;-51
2023/05/17 12:15:27;;;;;;;7.50;1.80;;;16.10;99.90;;;;;;5016379;28;20511;-50
2023/05/17 12:17:54;;;;;;;9.30;2.17;;;15.80;99.90;;;;;;5017885;28;20479;-50
2023/05/17 12:20:19;;;;;;;7.87;2.33;;;15.30;99.90;;;;;;5015370;28;20489;-50
2023/05/17 12:22:52;;;;;;;9.07;2.10;;;14.80;99.90;;;;;;5015643;28;20448;-51
2023/05/17 12:25:24;;;;;;;6.70;2.20;;;14.40;99.90;;;;;;5016099;28;20661;-50
2023/05/17 12:27:50;;;;;;;7.63;2.20;;;14.20;99.90;;;;;;5025177;28;20771;-51
2023/05/17 12:30:16;;;;;;;7.47;3.07;;;14.00;99.90;;;;;;5020750;28;20443;-51
2023/05/17 12:32:43;;;;;;;12.70;2.70;;;14.20;99.90;;;;;;5019116;28;20804;-50
2023/05/17 12:35:09;;;;;;;9.80;2.63;;;14.90;99.90;;;;;;5021278;28;20457;-50
2023/05/17 12:37:35;;;;;;;11.77;2.30;;;15.50;99.90;;;;;;5020295;28;20440;-51
2023/05/17 12:40:03;;;;;;;10.40;3.10;;;15.70;99.90;;;;;;5015226;28;20502;-50
2023/05/17 12:42:30;;;;;;;8.17;2.50;;;15.30;99.90;;;;;;5021732;28;20809;-50
2023/05/17 12:44:58;;;;;;;6.00;2.10;;;15.00;99.90;;;;;;5023117;28;20450;-51
2023/05/17 12:47:30;;;;;;;6.57;1.77;;;15.20;99.90;;;;;;5015015;28;20443;-50
2023/05/17 12:49:59;;;;;;;4.20;1.43;;;15.30;99.90;;;;;;5015673;28;20453;-50